createdAt,value
2023-04-14T00:00:03.827Z,72.20
2023-04-14T00:02:40.174Z,71.90
2023-04-14T00:05:08.735Z,71.40
2023-04-14T00:07:36.443Z,71.50
2023-04-14T00:10:04.444Z,71.20
2023-04-14T00:12:31.960Z,71.20
2023-04-14T00:14:59.508Z,71.70
2023-04-14T00:17:27.098Z,72.70
2023-04-14T00:19:54.623Z,73.40
2023-04-14T00:22:22.740Z,74.20
2023-04-14T00:24:50.795Z,75.40
2023-04-14T00:27:18.305Z,76.10
2023-04-14T00:29:45.855Z,76.20
2023-04-14T00:32:13.548Z,76.60
2023-04-14T00:34:41.026Z,76.50
2023-04-14T00:37:08.557Z,76.40
2023-04-14T00:39:36.273Z,76.00
2023-04-14T00:42:04.650Z,75.10
2023-04-14T00:44:32.160Z,74.80
2023-04-14T00:47:01.693Z,74.10
2023-04-14T00:49:29.403Z,72.70
2023-04-14T00:51:57.734Z,72.40
2023-04-14T00:54:27.995Z,72.40
2023-04-14T00:56:57.868Z,72.40
2023-04-14T00:59:25.748Z,72.00
2023-04-14T01:01:54.780Z,71.80
2023-04-14T01:04:23.048Z,71.60
2023-04-14T01:06:50.712Z,71.60
2023-04-14T01:09:18.214Z,71.20
2023-04-14T01:12:20.253Z,71.10
2023-04-14T01:15:10.820Z,70.90
2023-04-14T01:17:53.043Z,70.30
2023-04-14T01:20:36.232Z,70.10
2023-04-14T01:23:13.096Z,69.70
2023-04-14T01:26:13.942Z,70.10
2023-04-14T01:29:29.647Z,70.20
2023-04-14T01:32:10.183Z,70.00
2023-04-14T01:34:53.944Z,70.40
2023-04-14T01:37:47.230Z,70.70
2023-04-14T01:40:18.368Z,70.70
2023-04-14T01:43:04.790Z,70.90
2023-04-14T01:45:51.342Z,70.50
2023-04-14T01:48:19.588Z,70.20
2023-04-14T01:50:48.633Z,70.60
2023-04-14T01:53:18.149Z,70.50
2023-04-14T01:55:49.068Z,70.10
2023-04-14T01:58:19.113Z,69.90
2023-04-14T02:00:47.695Z,69.70
2023-04-14T02:03:21.639Z,69.60
2023-04-14T02:05:51.283Z,69.60
2023-04-14T02:08:20.170Z,68.90
2023-04-14T02:10:52.112Z,69.40
2023-04-14T02:13:21.446Z,68.80
2023-04-14T02:15:51.140Z,68.50
2023-04-14T02:18:22.972Z,68.70
2023-04-14T02:20:52.731Z,68.70
2023-04-14T02:23:20.508Z,68.80
2023-04-14T02:26:04.775Z,68.70
2023-04-14T02:28:34.215Z,68.60
2023-04-14T02:31:08.736Z,68.20
2023-04-14T02:33:39.351Z,68.80
2023-04-14T02:36:21.009Z,68.60
2023-04-14T02:39:00.798Z,69.60
2023-04-14T02:41:32.935Z,68.80
2023-04-14T02:44:24.546Z,68.70
2023-04-14T02:47:07.345Z,68.50
2023-04-14T02:49:43.253Z,69.20
2023-04-14T02:52:15.337Z,69.70
2023-04-14T02:54:46.141Z,70.20
2023-04-14T02:57:15.623Z,70.80
2023-04-14T02:59:47.612Z,70.80
2023-04-14T03:02:17.890Z,71.50
2023-04-14T03:04:51.306Z,71.60
2023-04-14T03:07:29.274Z,71.70
2023-04-14T03:09:58.063Z,72.00
2023-04-14T03:12:28.063Z,72.10
2023-04-14T03:14:58.069Z,72.60
2023-04-14T03:17:27.402Z,72.50
2023-04-14T03:19:56.383Z,72.80
2023-04-14T03:22:28.075Z,73.00
2023-04-14T03:24:58.749Z,73.60
2023-04-14T03:27:31.464Z,73.90
2023-04-14T03:30:06.812Z,74.40
2023-04-14T03:32:41.916Z,74.20
2023-04-14T03:35:14.849Z,74.60
2023-04-14T03:37:44.578Z,75.00
2023-04-14T03:40:14.480Z,75.00
2023-04-14T03:42:45.901Z,75.20
2023-04-14T03:45:18.262Z,75.00
2023-04-14T03:47:46.710Z,75.00
2023-04-14T03:50:16.340Z,74.70
2023-04-14T03:52:49.754Z,74.70
2023-04-14T03:55:19.433Z,74.10
2023-04-14T03:57:50.174Z,74.70
2023-04-14T04:00:20.039Z,75.10
2023-04-14T04:02:49.970Z,75.30
2023-04-14T04:05:18.353Z,75.30
2023-04-14T04:07:46.640Z,75.40
2023-04-14T04:10:16.270Z,76.10
2023-04-14T04:12:46.656Z,76.10
2023-04-14T04:15:14.750Z,76.30
2023-04-14T04:17:47.211Z,76.40
2023-04-14T04:20:19.261Z,76.50
2023-04-14T04:22:51.903Z,76.70
2023-04-14T04:25:20.566Z,76.60
2023-04-14T04:27:57.260Z,76.30
2023-04-14T04:30:27.639Z,76.30
2023-04-14T04:32:55.542Z,75.90
2023-04-14T04:35:24.629Z,76.60
2023-04-14T04:37:53.464Z,76.50
2023-04-14T04:40:21.113Z,76.20
2023-04-14T04:42:50.790Z,76.40
2023-04-14T04:45:49.960Z,75.90
2023-04-14T04:48:17.498Z,76.50
2023-04-14T04:50:45.509Z,75.40
2023-04-14T04:53:13.869Z,75.30
2023-04-14T04:55:42.551Z,75.00
2023-04-14T04:58:10.447Z,74.90
2023-04-14T05:00:37.979Z,74.90
2023-04-14T05:03:05.654Z,75.00
2023-04-14T05:05:37.135Z,74.90
2023-04-14T05:08:04.961Z,75.40
2023-04-14T05:10:36.563Z,74.80
2023-04-14T05:13:04.197Z,74.80
2023-04-14T05:15:31.732Z,74.70
2023-04-14T05:17:59.304Z,74.80
2023-04-14T05:20:26.861Z,74.90
2023-04-14T05:22:54.344Z,75.00
2023-04-14T05:25:22.108Z,74.80
2023-04-14T05:27:49.580Z,74.30
2023-04-14T05:30:17.074Z,74.10
2023-04-14T05:32:44.625Z,74.00
2023-04-14T05:35:12.158Z,73.70
2023-04-14T05:37:39.668Z,73.30
2023-04-14T05:40:08.115Z,72.60
2023-04-14T05:42:35.680Z,72.20
2023-04-14T05:45:04.123Z,72.20
2023-04-14T05:47:31.937Z,71.90
2023-04-14T05:49:59.866Z,72.00
2023-04-14T05:52:27.330Z,71.50
2023-04-14T05:54:55.182Z,71.60
2023-04-14T05:57:22.745Z,71.50
2023-04-14T05:59:50.222Z,71.00
2023-04-14T06:02:17.825Z,71.10
2023-04-14T06:04:46.425Z,71.00
2023-04-14T06:07:13.954Z,71.10
2023-04-14T06:09:42.670Z,71.20
2023-04-14T06:12:10.317Z,70.70
2023-04-14T06:14:37.787Z,70.80
2023-04-14T06:17:05.284Z,70.70
2023-04-14T06:19:32.794Z,70.70
2023-04-14T06:22:00.342Z,71.00
2023-04-14T06:24:27.932Z,71.30
2023-04-14T06:26:56.139Z,71.10
2023-04-14T06:29:23.623Z,70.10
2023-04-14T06:31:51.861Z,71.30
2023-04-14T06:34:19.405Z,70.80
2023-04-14T06:36:46.879Z,70.10
2023-04-14T06:39:14.370Z,69.20
2023-04-14T06:41:41.944Z,69.40
2023-04-14T06:44:13.386Z,68.90
2023-04-14T06:46:40.861Z,69.20
2023-04-14T06:49:08.464Z,68.90
2023-04-14T06:51:35.940Z,69.30
2023-04-14T06:54:03.934Z,68.30
2023-04-14T06:56:31.536Z,68.80
2023-04-14T06:59:02.574Z,69.10
2023-04-14T07:01:30.084Z,69.10
2023-04-14T07:03:57.660Z,68.30
2023-04-14T07:06:26.369Z,67.80
2023-04-14T07:08:55.889Z,67.80
2023-04-14T07:11:23.405Z,67.70
2023-04-14T07:13:50.908Z,68.00
2023-04-14T07:16:18.429Z,67.50
2023-04-14T07:18:45.911Z,68.00
2023-04-14T07:21:13.398Z,67.60
2023-04-14T07:23:40.968Z,67.50
2023-04-14T07:26:08.460Z,67.70
2023-04-14T07:28:35.932Z,67.70
2023-04-14T07:31:10.308Z,68.10
2023-04-14T07:33:37.851Z,67.30
2023-04-14T07:36:05.454Z,66.40
2023-04-14T07:38:33.399Z,66.80
2023-04-14T07:41:05.844Z,66.80
2023-04-14T07:43:36.772Z,66.60
2023-04-14T07:46:06.877Z,65.90
2023-04-14T07:48:38.416Z,67.40
2023-04-14T07:51:06.296Z,65.80
2023-04-14T07:53:34.462Z,66.30
2023-04-14T07:56:02.205Z,65.50
2023-04-14T07:58:30.041Z,65.60
2023-04-14T08:00:58.205Z,66.40
2023-04-14T08:03:26.105Z,66.70
2023-04-14T08:05:53.724Z,65.20
2023-04-14T08:08:21.204Z,64.60
2023-04-14T08:10:48.698Z,64.70
2023-04-14T08:13:16.204Z,64.50
2023-04-14T08:15:43.674Z,65.00
2023-04-14T08:18:11.172Z,64.30
2023-04-14T08:20:38.713Z,63.80
2023-04-14T08:23:06.170Z,62.80
2023-04-14T08:25:33.854Z,62.60
2023-04-14T08:28:01.421Z,61.60
2023-04-14T08:30:29.282Z,61.30
2023-04-14T08:32:58.903Z,62.60
2023-04-14T08:35:36.973Z,62.30
2023-04-14T08:38:08.925Z,63.00
2023-04-14T08:40:47.633Z,63.60
2023-04-14T08:43:15.676Z,63.80
2023-04-14T08:45:44.072Z,62.40
2023-04-14T08:48:14.668Z,62.60
2023-04-14T08:51:02.258Z,62.80
2023-04-14T08:53:32.070Z,60.40
2023-04-14T08:56:04.321Z,58.50
2023-04-14T08:58:32.292Z,60.00
2023-04-14T09:01:00.165Z,56.80
2023-04-14T09:03:28.191Z,57.20
2023-04-14T09:05:56.547Z,57.30
2023-04-14T09:08:24.401Z,58.00
2023-04-14T09:10:51.953Z,57.00
2023-04-14T09:13:22.755Z,57.50
2023-04-14T09:15:50.881Z,56.40
2023-04-14T09:18:18.517Z,56.30
2023-04-14T09:21:28.716Z,56.90
2023-04-14T09:23:41.614Z,53.90
2023-04-14T09:26:10.388Z,55.70
2023-04-14T09:28:38.124Z,56.70
2023-04-14T09:31:06.079Z,55.60
2023-04-14T09:33:38.931Z,56.50
2023-04-14T09:36:06.576Z,53.00
2023-04-14T09:38:39.147Z,52.50
2023-04-14T09:41:07.207Z,53.70
2023-04-14T09:43:36.590Z,54.20
2023-04-14T09:46:10.784Z,56.20
2023-04-14T09:48:56.279Z,52.20
2023-04-14T09:51:28.736Z,50.80
2023-04-14T09:54:04.798Z,53.30
2023-04-14T09:56:33.042Z,53.20
2023-04-14T09:59:02.446Z,53.90
2023-04-14T10:01:33.877Z,53.50
2023-04-14T10:04:02.776Z,53.50
2023-04-14T10:06:32.120Z,51.00
2023-04-14T10:09:01.623Z,53.40
2023-04-14T10:11:32.803Z,54.30
2023-04-14T10:14:06.193Z,55.10
2023-04-14T10:16:34.627Z,53.60
2023-04-14T10:19:03.759Z,54.30
2023-04-14T10:21:32.334Z,53.10
2023-04-14T10:24:01.127Z,53.80
2023-04-14T10:26:29.887Z,52.10
2023-04-14T10:28:57.503Z,51.30
2023-04-14T10:31:42.448Z,51.50
2023-04-14T10:34:15.671Z,51.80
2023-04-14T10:36:44.196Z,51.90
2023-04-14T10:39:12.749Z,52.40
2023-04-14T10:41:48.406Z,52.20
2023-04-14T10:44:33.024Z,51.20
2023-04-14T10:47:04.679Z,51.30
2023-04-14T10:49:41.475Z,51.10
2023-04-14T10:52:14.784Z,51.90
2023-04-14T10:54:51.939Z,50.20
2023-04-14T10:57:23.794Z,49.60
2023-04-14T10:59:55.817Z,50.20
2023-04-14T11:02:31.226Z,49.50
2023-04-14T11:05:08.417Z,50.10
2023-04-14T11:07:45.722Z,50.20
2023-04-14T11:10:19.447Z,47.60
2023-04-14T11:12:54.209Z,47.80
2023-04-14T11:15:21.858Z,47.30
2023-04-14T11:17:49.933Z,45.90
2023-04-14T11:20:22.823Z,46.80
2023-04-14T11:22:52.747Z,47.80
2023-04-14T11:25:24.581Z,47.10
2023-04-14T11:27:52.770Z,47.20
2023-04-14T11:30:21.416Z,45.10
2023-04-14T11:32:53.655Z,45.50
2023-04-14T11:35:24.869Z,45.60
2023-04-14T11:37:57.213Z,44.10
2023-04-14T11:40:27.352Z,44.20
2023-04-14T11:42:58.427Z,41.10
2023-04-14T11:45:30.291Z,42.30
2023-04-14T11:48:06.902Z,44.50
2023-04-14T11:50:38.993Z,43.90
2023-04-14T11:53:12.007Z,44.60
2023-04-14T11:55:48.152Z,44.30
2023-04-14T11:58:24.855Z,43.20
2023-04-14T12:00:56.027Z,44.60
2023-04-14T12:03:29.258Z,42.60
2023-04-14T12:06:01.542Z,43.60
2023-04-14T12:08:33.368Z,42.90
2023-04-14T12:11:17.378Z,42.70
2023-04-14T12:13:47.166Z,38.80
2023-04-14T12:16:16.881Z,40.60
2023-04-14T12:18:44.829Z,41.30
2023-04-14T12:21:18.834Z,40.40
2023-04-14T12:23:50.914Z,39.40
2023-04-14T12:26:20.070Z,39.80
2023-04-14T12:28:57.028Z,38.20
2023-04-14T12:31:31.972Z,38.60
2023-04-14T12:34:03.514Z,38.40
2023-04-14T12:36:48.119Z,39.70
2023-04-14T12:39:17.069Z,39.10
2023-04-14T12:41:45.093Z,39.50
2023-04-14T12:44:16.151Z,39.70
2023-04-14T12:46:52.611Z,39.10
2023-04-14T12:49:36.275Z,36.70
2023-04-14T12:52:05.266Z,36.90
2023-04-14T12:54:46.742Z,38.00
2023-04-14T12:57:14.219Z,34.70
2023-04-14T12:59:41.761Z,36.50
2023-04-14T13:02:10.088Z,37.30
2023-04-14T13:04:37.728Z,37.10
2023-04-14T13:07:05.203Z,36.90
2023-04-14T13:09:32.780Z,36.30
2023-04-14T13:12:00.260Z,38.20
2023-04-14T13:14:27.762Z,34.40
2023-04-14T13:16:56.225Z,36.40
2023-04-14T13:19:23.942Z,35.40
2023-04-14T13:21:51.429Z,35.90
2023-04-14T13:24:18.945Z,35.70
2023-04-14T13:26:46.442Z,34.30
2023-04-14T13:29:14.129Z,34.20
2023-04-14T13:31:41.673Z,35.00
2023-04-14T13:34:10.696Z,34.40
2023-04-14T13:36:38.577Z,33.70
2023-04-14T13:39:06.267Z,34.00
2023-04-14T13:41:33.812Z,33.60
2023-04-14T13:44:01.297Z,32.70
2023-04-14T13:46:28.872Z,31.50
2023-04-14T13:48:56.523Z,32.50
2023-04-14T13:51:24.036Z,33.10
2023-04-14T13:53:53.157Z,31.90
2023-04-14T13:56:22.609Z,32.20
2023-04-14T13:58:50.317Z,32.20
2023-04-14T14:01:18.162Z,30.30
2023-04-14T14:03:46.757Z,31.50
2023-04-14T14:06:14.448Z,32.60
2023-04-14T14:08:42.398Z,32.90
2023-04-14T14:11:10.648Z,33.90
2023-04-14T14:13:39.638Z,30.20
2023-04-14T14:16:10.210Z,32.10
2023-04-14T14:18:38.418Z,32.40
2023-04-14T14:21:06.576Z,30.70
2023-04-14T14:23:34.144Z,29.20
2023-04-14T14:26:01.600Z,30.00
2023-04-14T14:28:29.118Z,30.30
2023-04-14T14:30:56.647Z,30.70
2023-04-14T14:33:24.157Z,30.00
2023-04-14T14:35:52.213Z,30.50
2023-04-14T14:38:19.685Z,30.70
2023-04-14T14:40:47.216Z,30.50
2023-04-14T14:43:14.682Z,30.60
2023-04-14T14:45:42.180Z,28.90
2023-04-14T14:48:11.586Z,29.00
2023-04-14T14:50:39.154Z,29.50
2023-04-14T14:53:07.041Z,29.80
2023-04-14T14:55:35.111Z,28.80
2023-04-14T14:58:03.844Z,28.40
2023-04-14T15:00:31.369Z,27.20
2023-04-14T15:02:59.007Z,26.60
2023-04-14T15:05:27.499Z,26.10
2023-04-14T15:07:55.000Z,27.90
2023-04-14T15:10:22.512Z,27.30
2023-04-14T15:12:50.017Z,27.60
2023-04-14T15:15:19.723Z,28.60
2023-04-14T15:17:47.315Z,28.50
2023-04-14T15:20:15.397Z,28.30
2023-04-14T15:22:42.975Z,28.20
2023-04-14T15:25:10.591Z,27.40
2023-04-14T15:27:38.060Z,28.20
2023-04-14T15:30:06.932Z,26.90
2023-04-14T15:32:34.536Z,28.10
2023-04-14T15:35:02.112Z,28.40
2023-04-14T15:37:29.658Z,26.90
2023-04-14T15:39:57.284Z,26.30
2023-04-14T15:42:24.863Z,26.10
2023-04-14T15:44:52.335Z,26.90
2023-04-14T15:47:19.878Z,27.20
2023-04-14T15:49:48.498Z,27.70
2023-04-14T15:52:17.636Z,27.20
2023-04-14T15:54:45.369Z,27.40
2023-04-14T15:57:12.958Z,27.20
2023-04-14T15:59:40.876Z,27.20
2023-04-14T16:02:08.496Z,28.10
2023-04-14T16:04:36.698Z,27.40
2023-04-14T16:07:04.428Z,26.80
2023-04-14T16:09:31.902Z,27.60
2023-04-14T16:11:59.420Z,28.20
2023-04-14T16:14:35.304Z,28.10
2023-04-14T16:17:02.847Z,27.70
2023-04-14T16:19:30.356Z,28.10
2023-04-14T16:21:57.851Z,28.50
2023-04-14T16:24:25.446Z,28.90
2023-04-14T16:26:53.025Z,28.50
2023-04-14T16:29:20.573Z,28.80
2023-04-14T16:31:48.213Z,29.00
2023-04-14T16:34:18.144Z,28.60
2023-04-14T16:36:46.747Z,29.40
2023-04-14T16:39:14.686Z,29.40
2023-04-14T16:41:42.293Z,29.80
2023-04-14T16:44:09.811Z,29.60
2023-04-14T16:46:37.318Z,30.00
2023-04-14T16:49:06.862Z,30.50
2023-04-14T16:51:34.491Z,30.30
2023-04-14T16:54:02.374Z,30.30
2023-04-14T16:56:30.438Z,30.00
2023-04-14T16:58:58.172Z,29.60
2023-04-14T17:01:26.545Z,29.90
2023-04-14T17:03:54.279Z,29.90
2023-04-14T17:06:21.922Z,30.00
2023-04-14T17:08:49.392Z,30.30
2023-04-14T17:11:16.883Z,30.50
2023-04-14T17:13:44.401Z,30.80
2023-04-14T17:16:12.067Z,31.20
2023-04-14T17:18:39.740Z,32.60
2023-04-14T17:21:07.343Z,32.40
2023-04-14T17:23:39.138Z,32.10
2023-04-14T17:26:06.800Z,32.00
2023-04-14T17:28:35.570Z,31.70
2023-04-14T17:31:09.661Z,31.90
2023-04-14T17:33:37.253Z,32.30
2023-04-14T17:36:05.195Z,32.90
2023-04-14T17:38:34.547Z,33.10
2023-04-14T17:41:03.148Z,32.90
2023-04-14T17:43:30.987Z,33.30
2023-04-14T17:45:58.532Z,33.30
2023-04-14T17:48:27.556Z,33.40
2023-04-14T17:50:55.165Z,33.30
2023-04-14T17:53:22.695Z,33.30
2023-04-14T17:55:51.348Z,33.50
2023-04-14T17:58:20.146Z,33.90
2023-04-14T18:00:47.696Z,33.70
2023-04-14T18:03:16.444Z,33.80
2023-04-14T18:05:44.048Z,34.00
2023-04-14T18:08:11.576Z,33.90
2023-04-14T18:10:39.153Z,34.00
2023-04-14T18:13:06.666Z,34.00
2023-04-14T18:15:34.137Z,34.60
2023-04-14T18:18:01.776Z,34.10
2023-04-14T18:20:29.325Z,34.10
2023-04-14T18:23:01.884Z,34.80
2023-04-14T18:28:03.961Z,35.00
2023-04-14T18:30:31.840Z,35.50
2023-04-14T18:33:00.750Z,36.90
2023-04-14T18:35:29.075Z,37.90
2023-04-14T18:37:56.554Z,38.80
2023-04-14T18:40:25.837Z,39.30
2023-04-14T18:42:55.146Z,40.00
2023-04-14T18:45:22.744Z,40.60
2023-04-14T18:47:50.680Z,41.70
2023-04-14T18:50:20.207Z,41.30
2023-04-14T18:52:47.804Z,41.80
2023-04-14T18:55:15.451Z,42.20
2023-04-14T18:57:42.935Z,42.40
2023-04-14T19:00:13.281Z,43.00
2023-04-14T19:02:41.209Z,43.00
2023-04-14T19:05:09.913Z,43.20
2023-04-14T19:07:37.596Z,43.50
2023-04-14T19:10:06.590Z,43.50
2023-04-14T19:12:34.104Z,43.10
2023-04-14T19:15:02.768Z,43.50
2023-04-14T19:17:35.789Z,43.60
2023-04-14T19:20:04.460Z,43.00
2023-04-14T19:22:31.958Z,41.80
2023-04-14T19:24:59.504Z,41.90
2023-04-14T19:27:26.993Z,42.00
2023-04-14T19:29:54.620Z,43.00
2023-04-14T19:32:22.178Z,43.20
2023-04-14T19:34:49.705Z,43.80
2023-04-14T19:37:17.221Z,44.40
2023-04-14T19:39:45.209Z,45.00
2023-04-14T19:42:12.724Z,45.40
2023-04-14T19:44:40.327Z,45.90
2023-04-14T19:47:07.934Z,46.10
2023-04-14T19:49:36.102Z,46.30
2023-04-14T19:52:04.751Z,47.00
2023-04-14T19:54:32.286Z,47.20
2023-04-14T19:57:00.297Z,47.70
2023-04-14T19:59:29.480Z,48.10
2023-04-14T20:01:56.965Z,48.30
2023-04-14T20:04:24.682Z,48.50
2023-04-14T20:06:53.176Z,48.40
2023-04-14T20:09:20.717Z,48.80
2023-04-14T20:11:48.248Z,49.10
2023-04-14T20:14:16.192Z,49.30
2023-04-14T20:16:44.050Z,49.60
2023-04-14T20:19:11.774Z,49.90
2023-04-14T20:21:39.573Z,50.10
2023-04-14T20:24:07.119Z,50.30
2023-04-14T20:26:35.023Z,50.30
2023-04-14T20:29:02.810Z,50.60
2023-04-14T20:31:30.705Z,50.80
2023-04-14T20:33:58.368Z,51.00
2023-04-14T20:36:26.166Z,50.80
2023-04-14T20:38:53.702Z,51.10
2023-04-14T20:41:21.560Z,51.60
2023-04-14T20:43:49.061Z,51.80
2023-04-14T20:46:16.857Z,51.90
2023-04-14T20:48:44.573Z,52.70
2023-04-14T20:51:12.165Z,52.60
2023-04-14T20:53:39.711Z,52.70
2023-04-14T20:56:07.297Z,53.10
2023-04-14T20:58:34.906Z,52.60
2023-04-14T21:01:02.911Z,52.70
2023-04-14T21:03:34.306Z,52.90
2023-04-14T21:06:02.080Z,53.30
2023-04-14T21:08:29.841Z,53.70
2023-04-14T21:11:15.319Z,54.00
2023-04-14T21:15:27.189Z,54.50
2023-04-14T21:16:32.244Z,55.00
2023-04-14T21:19:02.280Z,55.10
2023-04-14T21:21:30.368Z,54.60
2023-04-14T21:23:57.970Z,54.30
2023-04-14T21:26:26.818Z,54.40
2023-04-14T21:28:54.428Z,54.60
2023-04-14T21:31:21.911Z,54.60
2023-04-14T21:33:49.467Z,54.80
2023-04-14T21:36:17.085Z,55.00
2023-04-14T21:38:45.110Z,54.70
2023-04-14T21:41:13.088Z,54.70
2023-04-14T21:43:40.588Z,54.70
2023-04-14T21:46:08.206Z,54.80
2023-04-14T21:48:36.291Z,54.90
2023-04-14T21:51:03.975Z,55.10
2023-04-14T21:53:32.038Z,55.10
2023-04-14T21:56:09.718Z,55.30
2023-04-14T21:58:39.340Z,55.20
2023-04-14T22:01:07.838Z,55.50
2023-04-14T22:03:37.507Z,55.60
2023-04-14T22:06:05.725Z,55.90
2023-04-14T22:08:34.129Z,55.80
2023-04-14T22:11:04.736Z,56.00
2023-04-14T22:13:32.544Z,56.70
2023-04-14T22:16:00.609Z,57.00
2023-04-14T22:18:30.712Z,56.80
2023-04-14T22:20:58.625Z,56.70
2023-04-14T22:23:26.130Z,56.70
2023-04-14T22:25:53.723Z,56.70
2023-04-14T22:28:21.536Z,56.80
2023-04-14T22:30:49.098Z,56.80
2023-04-14T22:33:16.598Z,56.80
2023-04-14T22:35:44.191Z,57.10
2023-04-14T22:38:12.054Z,56.90
2023-04-14T22:40:40.743Z,57.10
2023-04-14T22:43:08.950Z,57.30
2023-04-14T22:45:41.889Z,57.40
2023-04-14T22:48:10.688Z,58.20
2023-04-14T22:50:39.159Z,58.30
2023-04-14T22:53:06.780Z,58.40
2023-04-14T22:55:34.331Z,58.60
2023-04-14T22:58:02.405Z,58.80
2023-04-14T23:00:29.922Z,59.00
2023-04-14T23:02:59.260Z,59.10
2023-04-14T23:05:27.138Z,59.20
2023-04-14T23:07:54.607Z,59.60
2023-04-14T23:10:22.138Z,59.80
2023-04-14T23:12:49.617Z,59.70
2023-04-14T23:15:18.701Z,60.00
2023-04-14T23:17:46.305Z,60.60
2023-04-14T23:20:13.855Z,59.70
2023-04-14T23:22:41.408Z,59.30
2023-04-14T23:25:09.360Z,59.40
2023-04-14T23:27:36.945Z,59.30
2023-04-14T23:30:05.420Z,59.40
2023-04-14T23:32:33.091Z,59.10
2023-04-14T23:35:00.747Z,59.20
2023-04-14T23:37:28.672Z,59.20
2023-04-14T23:39:56.298Z,59.10
2023-04-14T23:42:23.777Z,58.90
2023-04-14T23:44:51.434Z,58.90
2023-04-14T23:47:19.171Z,59.20
2023-04-14T23:49:46.764Z,59.10
2023-04-14T23:52:14.221Z,59.10
2023-04-14T23:54:41.786Z,58.90
2023-04-14T23:57:09.805Z,58.80
2023-04-14T23:59:38.135Z,58.70
